sensor_id;sensor_type;location;lat;lon;timestamp;pressure;altitude;pressure_sealevel;temperature;humidity
77017;BME280;65949;53.132;17.930;2022-12-18T00:01:22;102652.52;;;-4.32;78.69
77017;BME280;65949;53.132;17.930;2022-12-18T00:03:49;102650.30;;;-4.31;78.68
77017;BME280;65949;53.132;17.930;2022-12-18T00:06:19;102655.99;;;-4.25;78.70
77017;BME280;65949;53.132;17.930;2022-12-18T00:08:47;102659.20;;;-4.18;78.54
77017;BME280;65949;53.132;17.930;2022-12-18T00:11:16;102659.86;;;-4.13;78.82
77017;BME280;65949;53.132;17.930;2022-12-18T00:13:44;102657.55;;;-4.12;78.58
77017;BME280;65949;53.132;17.930;2022-12-18T00:16:16;102659.81;;;-4.08;78.64
77017;BME280;65949;53.132;17.930;2022-12-18T00:18:43;102661.85;;;-4.05;78.48
77017;BME280;65949;53.132;17.930;2022-12-18T00:21:11;102663.94;;;-4.02;78.77
77017;BME280;65949;53.132;17.930;2022-12-18T00:23:42;102661.14;;;-4.00;78.55
77017;BME280;65949;53.132;17.930;2022-12-18T00:26:21;102666.44;;;-4.08;78.73
77017;BME280;65949;53.132;17.930;2022-12-18T00:28:50;102668.63;;;-4.15;78.66
77017;BME280;65949;53.132;17.930;2022-12-18T00:31:19;102666.73;;;-4.12;78.66
77017;BME280;65949;53.132;17.930;2022-12-18T00:33:47;102672.00;;;-4.07;78.67
77017;BME280;65949;53.132;17.930;2022-12-18T00:36:17;102674.16;;;-4.04;78.54
77017;BME280;65949;53.132;17.930;2022-12-18T00:38:46;102675.98;;;-4.04;78.63
77017;BME280;65949;53.132;17.930;2022-12-18T00:41:15;102695.03;;;-4.09;78.56
77017;BME280;65949;53.132;17.930;2022-12-18T00:44:05;102689.61;;;-4.12;78.69
77017;BME280;65949;53.132;17.930;2022-12-18T00:46:33;102690.29;;;-4.09;78.79
77017;BME280;65949;53.132;17.930;2022-12-18T00:49:00;102692.89;;;-4.03;78.62
77017;BME280;65949;53.132;17.930;2022-12-18T00:51:27;102692.80;;;-3.99;78.55
77017;BME280;65949;53.132;17.930;2022-12-18T00:53:54;102700.80;;;-4.00;78.48
77017;BME280;65949;53.132;17.930;2022-12-18T00:56:21;102702.84;;;-3.99;78.78
77017;BME280;65949;53.132;17.930;2022-12-18T00:58:47;102706.85;;;-3.96;78.90
77017;BME280;65949;53.132;17.930;2022-12-18T01:01:14;102709.85;;;-3.91;78.46
77017;BME280;65949;53.132;17.930;2022-12-18T01:03:41;102712.29;;;-3.94;78.57
77017;BME280;65949;53.132;17.930;2022-12-18T01:06:10;102713.39;;;-3.93;78.71
77017;BME280;65949;53.132;17.930;2022-12-18T01:08:38;102714.27;;;-3.93;78.22
77017;BME280;65949;53.132;17.930;2022-12-18T01:11:15;102719.23;;;-3.92;78.25
77017;BME280;65949;53.132;17.930;2022-12-18T01:13:42;102726.20;;;-3.96;78.54
77017;BME280;65949;53.132;17.930;2022-12-18T01:16:11;102727.71;;;-4.01;78.45
77017;BME280;65949;53.132;17.930;2022-12-18T01:18:39;102726.59;;;-3.99;78.35
77017;BME280;65949;53.132;17.930;2022-12-18T01:21:07;102721.63;;;-3.97;78.45
77017;BME280;65949;53.132;17.930;2022-12-18T01:23:37;102721.63;;;-3.96;78.66
77017;BME280;65949;53.132;17.930;2022-12-18T01:26:06;102729.54;;;-3.93;78.42
77017;BME280;65949;53.132;17.930;2022-12-18T01:28:35;102729.09;;;-3.92;78.33
77017;BME280;65949;53.132;17.930;2022-12-18T01:31:21;102727.75;;;-3.89;78.31
77017;BME280;65949;53.132;17.930;2022-12-18T01:33:48;102726.55;;;-3.92;78.15
77017;BME280;65949;53.132;17.930;2022-12-18T01:36:25;102727.04;;;-3.96;78.37
77017;BME280;65949;53.132;17.930;2022-12-18T01:38:52;102731.55;;;-4.00;78.33
77017;BME280;65949;53.132;17.930;2022-12-18T01:41:26;102730.13;;;-4.06;78.37
77017;BME280;65949;53.132;17.930;2022-12-18T01:43:55;102731.81;;;-4.11;78.63
77017;BME280;65949;53.132;17.930;2022-12-18T01:46:25;102740.55;;;-4.10;78.41
77017;BME280;65949;53.132;17.930;2022-12-18T01:49:01;102748.63;;;-4.13;78.71
77017;BME280;65949;53.132;17.930;2022-12-18T01:51:29;102756.91;;;-4.17;78.33
77017;BME280;65949;53.132;17.930;2022-12-18T01:53:59;102751.91;;;-4.21;78.71
77017;BME280;65949;53.132;17.930;2022-12-18T01:56:26;102752.48;;;-4.20;78.57
77017;BME280;65949;53.132;17.930;2022-12-18T01:59:05;102745.98;;;-4.19;78.70
77017;BME280;65949;53.132;17.930;2022-12-18T02:01:33;102741.02;;;-4.21;78.67
77017;BME280;65949;53.132;17.930;2022-12-18T02:04:22;102741.83;;;-4.25;78.58
77017;BME280;65949;53.132;17.930;2022-12-18T02:06:56;102743.43;;;-4.26;78.77
77017;BME280;65949;53.132;17.930;2022-12-18T02:10:41;102746.89;;;-4.25;78.73
77017;BME280;65949;53.132;17.930;2022-12-18T02:15:19;102767.27;;;-4.25;78.60
77017;BME280;65949;53.132;17.930;2022-12-18T02:18:04;102771.15;;;-4.22;78.50
77017;BME280;65949;53.132;17.930;2022-12-18T02:20:37;102763.59;;;-4.19;78.61
77017;BME280;65949;53.132;17.930;2022-12-18T02:26:34;102783.42;;;-4.16;78.40
77017;BME280;65949;53.132;17.930;2022-12-18T02:29:26;102787.08;;;-4.17;78.33
77017;BME280;65949;53.132;17.930;2022-12-18T02:32:00;102785.64;;;-4.13;78.27
77017;BME280;65949;53.132;17.930;2022-12-18T02:34:31;102789.61;;;-4.05;78.20
77017;BME280;65949;53.132;17.930;2022-12-18T02:37:01;102793.83;;;-4.04;78.16
77017;BME280;65949;53.132;17.930;2022-12-18T02:39:32;102798.17;;;-4.08;78.07
77017;BME280;65949;53.132;17.930;2022-12-18T02:42:02;102800.40;;;-4.11;78.31
77017;BME280;65949;53.132;17.930;2022-12-18T02:44:41;102799.61;;;-4.12;78.37
77017;BME280;65949;53.132;17.930;2022-12-18T02:47:11;102804.27;;;-4.10;78.25
77017;BME280;65949;53.132;17.930;2022-12-18T02:49:53;102806.37;;;-4.16;78.43
77017;BME280;65949;53.132;17.930;2022-12-18T02:58:16;102802.65;;;-4.21;78.36
77017;BME280;65949;53.132;17.930;2022-12-18T03:03:55;102807.46;;;-4.22;78.54
77017;BME280;65949;53.132;17.930;2022-12-18T03:06:30;102805.55;;;-4.19;78.39
77017;BME280;65949;53.132;17.930;2022-12-18T03:09:20;102805.17;;;-4.13;78.38
77017;BME280;65949;53.132;17.930;2022-12-18T03:11:54;102822.96;;;-4.08;78.34
77017;BME280;65949;53.132;17.930;2022-12-18T03:14:42;102827.63;;;-4.07;78.09
77017;BME280;65949;53.132;17.930;2022-12-18T03:17:15;102820.02;;;-4.05;78.24
77017;BME280;65949;53.132;17.930;2022-12-18T03:19:45;102819.38;;;-4.03;78.23
77017;BME280;65949;53.132;17.930;2022-12-18T03:22:14;102821.20;;;-4.03;78.14
77017;BME280;65949;53.132;17.930;2022-12-18T03:24:46;102823.85;;;-4.01;77.99
77017;BME280;65949;53.132;17.930;2022-12-18T03:27:17;102821.49;;;-4.09;78.19
77017;BME280;65949;53.132;17.930;2022-12-18T03:30:04;102823.25;;;-4.15;78.11
77017;BME280;65949;53.132;17.930;2022-12-18T03:32:52;102826.45;;;-4.15;78.00
77017;BME280;65949;53.132;17.930;2022-12-18T03:35:25;102829.80;;;-4.09;78.06
77017;BME280;65949;53.132;17.930;2022-12-18T03:37:53;102833.27;;;-4.03;77.77
77017;BME280;65949;53.132;17.930;2022-12-18T03:40:29;102838.01;;;-4.02;77.84
77017;BME280;65949;53.132;17.930;2022-12-18T03:43:17;102839.67;;;-4.09;77.73
77017;BME280;65949;53.132;17.930;2022-12-18T03:46:26;102844.20;;;-4.13;77.82
77017;BME280;65949;53.132;17.930;2022-12-18T03:49:02;102844.45;;;-4.19;77.85
77017;BME280;65949;53.132;17.930;2022-12-18T03:51:48;102854.05;;;-4.23;78.12
77017;BME280;65949;53.132;17.930;2022-12-18T03:54:17;102860.22;;;-4.24;78.09
77017;BME280;65949;53.132;17.930;2022-12-18T03:56:56;102859.42;;;-4.25;77.99
77017;BME280;65949;53.132;17.930;2022-12-18T03:59:26;102858.03;;;-4.22;77.90
77017;BME280;65949;53.132;17.930;2022-12-18T04:01:57;102850.58;;;-4.20;78.02
77017;BME280;65949;53.132;17.930;2022-12-18T04:04:27;102849.13;;;-4.18;77.93
77017;BME280;65949;53.132;17.930;2022-12-18T04:06:55;102849.27;;;-4.13;77.71
77017;BME280;65949;53.132;17.930;2022-12-18T04:09:24;102851.71;;;-4.09;77.45
77017;BME280;65949;53.132;17.930;2022-12-18T04:11:52;102853.23;;;-4.09;77.54
77017;BME280;65949;53.132;17.930;2022-12-18T04:14:20;102851.48;;;-4.11;77.49
77017;BME280;65949;53.132;17.930;2022-12-18T04:16:50;102858.80;;;-4.11;77.43
77017;BME280;65949;53.132;17.930;2022-12-18T04:19:18;102865.03;;;-4.10;77.29
77017;BME280;65949;53.132;17.930;2022-12-18T04:21:45;102863.65;;;-4.10;77.53
77017;BME280;65949;53.132;17.930;2022-12-18T04:24:12;102861.00;;;-4.11;77.70
77017;BME280;65949;53.132;17.930;2022-12-18T04:26:42;102861.02;;;-4.11;77.52
77017;BME280;65949;53.132;17.930;2022-12-18T04:29:16;102865.98;;;-4.14;77.67
77017;BME280;65949;53.132;17.930;2022-12-18T04:31:42;102869.97;;;-4.18;77.58
77017;BME280;65949;53.132;17.930;2022-12-18T04:34:09;102874.95;;;-4.21;77.53
77017;BME280;65949;53.132;17.930;2022-12-18T04:36:41;102874.52;;;-4.25;77.56
77017;BME280;65949;53.132;17.930;2022-12-18T04:39:07;102874.68;;;-4.30;77.54
77017;BME280;65949;53.132;17.930;2022-12-18T04:41:34;102880.66;;;-4.33;77.57
77017;BME280;65949;53.132;17.930;2022-12-18T04:44:01;102883.84;;;-4.34;77.70
77017;BME280;65949;53.132;17.930;2022-12-18T04:46:28;102885.63;;;-4.33;77.75
77017;BME280;65949;53.132;17.930;2022-12-18T04:48:55;102883.02;;;-4.33;77.60
77017;BME280;65949;53.132;17.930;2022-12-18T04:51:21;102885.63;;;-4.29;77.84
77017;BME280;65949;53.132;17.930;2022-12-18T04:53:48;102890.55;;;-4.26;77.36
77017;BME280;65949;53.132;17.930;2022-12-18T04:56:15;102893.33;;;-4.24;77.54
77017;BME280;65949;53.132;17.930;2022-12-18T04:58:43;102894.86;;;-4.25;77.56
77017;BME280;65949;53.132;17.930;2022-12-18T05:01:12;102897.98;;;-4.23;77.57
77017;BME280;65949;53.132;17.930;2022-12-18T05:03:39;102900.92;;;-4.19;77.66
77017;BME280;65949;53.132;17.930;2022-12-18T05:06:06;102904.30;;;-4.14;77.44
77017;BME280;65949;53.132;17.930;2022-12-18T05:08:33;102902.80;;;-4.16;77.31
77017;BME280;65949;53.132;17.930;2022-12-18T05:11:02;102902.96;;;-4.19;77.59
77017;BME280;65949;53.132;17.930;2022-12-18T05:13:31;102904.52;;;-4.29;77.42
77017;BME280;65949;53.132;17.930;2022-12-18T05:15:58;102912.23;;;-4.40;77.47
77017;BME280;65949;53.132;17.930;2022-12-18T05:18:25;102915.52;;;-4.47;77.69
77017;BME280;65949;53.132;17.930;2022-12-18T05:20:53;102918.57;;;-4.52;77.59
77017;BME280;65949;53.132;17.930;2022-12-18T05:23:21;102924.58;;;-4.55;77.70
77017;BME280;65949;53.132;17.930;2022-12-18T05:25:57;102932.52;;;-4.55;77.64
77017;BME280;65949;53.132;17.930;2022-12-18T05:28:25;102935.38;;;-4.55;77.72
77017;BME280;65949;53.132;17.930;2022-12-18T05:30:55;102939.16;;;-4.55;77.71
77017;BME280;65949;53.132;17.930;2022-12-18T05:33:23;102950.47;;;-4.54;77.61
77017;BME280;65949;53.132;17.930;2022-12-18T05:35:51;102954.38;;;-4.54;77.74
77017;BME280;65949;53.132;17.930;2022-12-18T05:38:19;102960.61;;;-4.57;77.55
77017;BME280;65949;53.132;17.930;2022-12-18T05:40:47;102957.92;;;-4.57;77.56
77017;BME280;65949;53.132;17.930;2022-12-18T05:43:15;102961.38;;;-4.55;77.38
77017;BME280;65949;53.132;17.930;2022-12-18T05:45:42;102957.62;;;-4.57;77.51
77017;BME280;65949;53.132;17.930;2022-12-18T05:48:09;102961.59;;;-4.58;77.31
77017;BME280;65949;53.132;17.930;2022-12-18T05:50:40;102964.09;;;-4.63;77.08
77017;BME280;65949;53.132;17.930;2022-12-18T05:53:08;102969.70;;;-4.71;76.99
77017;BME280;65949;53.132;17.930;2022-12-18T05:55:36;102974.08;;;-4.78;77.09
77017;BME280;65949;53.132;17.930;2022-12-18T05:58:04;102974.37;;;-4.85;77.16
77017;BME280;65949;53.132;17.930;2022-12-18T06:00:33;102977.43;;;-4.83;77.16
77017;BME280;65949;53.132;17.930;2022-12-18T06:03:01;102980.16;;;-4.78;76.94
77017;BME280;65949;53.132;17.930;2022-12-18T06:05:28;102977.63;;;-4.75;76.74
77017;BME280;65949;53.132;17.930;2022-12-18T06:07:55;102982.40;;;-4.76;76.78
77017;BME280;65949;53.132;17.930;2022-12-18T06:10:21;102985.01;;;-4.80;76.70
77017;BME280;65949;53.132;17.930;2022-12-18T06:12:48;102985.86;;;-4.82;76.79
77017;BME280;65949;53.132;17.930;2022-12-18T06:15:15;102988.03;;;-4.85;76.68
77017;BME280;65949;53.132;17.930;2022-12-18T06:17:42;102992.79;;;-4.87;76.63
77017;BME280;65949;53.132;17.930;2022-12-18T06:20:09;102994.17;;;-4.88;76.67
77017;BME280;65949;53.132;17.930;2022-12-18T06:22:36;103002.94;;;-4.90;76.47
77017;BME280;65949;53.132;17.930;2022-12-18T06:25:03;103012.60;;;-4.92;76.64
77017;BME280;65949;53.132;17.930;2022-12-18T06:27:30;103014.16;;;-4.93;76.60
77017;BME280;65949;53.132;17.930;2022-12-18T06:29:57;103015.86;;;-4.93;76.44
77017;BME280;65949;53.132;17.930;2022-12-18T06:32:23;103012.31;;;-4.98;76.33
77017;BME280;65949;53.132;17.930;2022-12-18T06:34:50;103015.95;;;-5.05;76.37
77017;BME280;65949;53.132;17.930;2022-12-18T06:37:17;103015.55;;;-5.12;76.37
77017;BME280;65949;53.132;17.930;2022-12-18T06:39:44;103022.68;;;-5.18;76.25
77017;BME280;65949;53.132;17.930;2022-12-18T06:42:11;103029.94;;;-5.26;76.54
77017;BME280;65949;53.132;17.930;2022-12-18T06:44:37;103032.61;;;-5.36;76.44
77017;BME280;65949;53.132;17.930;2022-12-18T06:47:04;103037.34;;;-5.39;76.54
77017;BME280;65949;53.132;17.930;2022-12-18T06:49:31;103040.09;;;-5.42;76.23
77017;BME280;65949;53.132;17.930;2022-12-18T06:51:58;103042.50;;;-5.43;76.53
77017;BME280;65949;53.132;17.930;2022-12-18T06:54:24;103048.21;;;-5.45;76.51
77017;BME280;65949;53.132;17.930;2022-12-18T06:56:51;103060.48;;;-5.43;76.52
77017;BME280;65949;53.132;17.930;2022-12-18T06:59:18;103063.00;;;-5.45;76.67
77017;BME280;65949;53.132;17.930;2022-12-18T07:01:44;103067.48;;;-5.44;76.39
77017;BME280;65949;53.132;17.930;2022-12-18T07:04:11;103067.82;;;-5.50;76.42
77017;BME280;65949;53.132;17.930;2022-12-18T07:06:38;103069.39;;;-5.56;76.26
77017;BME280;65949;53.132;17.930;2022-12-18T07:09:04;103072.91;;;-5.64;76.81
77017;BME280;65949;53.132;17.930;2022-12-18T07:11:34;103072.07;;;-5.67;76.56
77017;BME280;65949;53.132;17.930;2022-12-18T07:14:01;103076.98;;;-5.70;76.34
77017;BME280;65949;53.132;17.930;2022-12-18T07:16:28;103075.38;;;-5.72;76.78
77017;BME280;65949;53.132;17.930;2022-12-18T07:18:55;103075.66;;;-5.74;76.46
77017;BME280;65949;53.132;17.930;2022-12-18T07:21:24;103078.52;;;-5.76;76.33
77017;BME280;65949;53.132;17.930;2022-12-18T07:23:51;103082.14;;;-5.77;76.52
77017;BME280;65949;53.132;17.930;2022-12-18T07:26:20;103086.95;;;-5.78;76.24
77017;BME280;65949;53.132;17.930;2022-12-18T07:28:47;103089.15;;;-5.78;76.31
77017;BME280;65949;53.132;17.930;2022-12-18T07:31:20;103093.38;;;-5.75;76.02
77017;BME280;65949;53.132;17.930;2022-12-18T07:33:47;103103.77;;;-5.77;76.01
77017;BME280;65949;53.132;17.930;2022-12-18T07:36:14;103111.23;;;-5.77;75.80
77017;BME280;65949;53.132;17.930;2022-12-18T07:38:42;103121.00;;;-5.81;76.03
77017;BME280;65949;53.132;17.930;2022-12-18T07:41:13;103122.48;;;-5.83;75.99
77017;BME280;65949;53.132;17.930;2022-12-18T07:43:40;103123.68;;;-5.89;76.01
77017;BME280;65949;53.132;17.930;2022-12-18T07:46:08;103125.33;;;-5.86;76.14
77017;BME280;65949;53.132;17.930;2022-12-18T07:48:35;103129.45;;;-5.76;75.68
77017;BME280;65949;53.132;17.930;2022-12-18T07:51:04;103124.23;;;-5.76;75.75
77017;BME280;65949;53.132;17.930;2022-12-18T07:53:32;103122.35;;;-5.81;75.27
77017;BME280;65949;53.132;17.930;2022-12-18T07:56:02;103120.71;;;-5.85;75.90
77017;BME280;65949;53.132;17.930;2022-12-18T07:58:29;103119.16;;;-5.79;75.46
77017;BME280;65949;53.132;17.930;2022-12-18T08:01:10;103128.25;;;-5.75;75.42
77017;BME280;65949;53.132;17.930;2022-12-18T08:03:38;103136.77;;;-5.73;75.40
77017;BME280;65949;53.132;17.930;2022-12-18T08:06:08;103146.82;;;-5.71;75.41
77017;BME280;65949;53.132;17.930;2022-12-18T08:08:35;103150.02;;;-5.71;75.46
77017;BME280;65949;53.132;17.930;2022-12-18T08:11:02;103147.75;;;-5.73;75.34
77017;BME280;65949;53.132;17.930;2022-12-18T08:13:29;103148.75;;;-5.70;75.40
77017;BME280;65949;53.132;17.930;2022-12-18T08:16:06;103150.20;;;-5.77;75.08
77017;BME280;65949;53.132;17.930;2022-12-18T08:18:35;103155.36;;;-5.87;75.41
77017;BME280;65949;53.132;17.930;2022-12-18T08:21:09;103153.34;;;-5.90;75.62
77017;BME280;65949;53.132;17.930;2022-12-18T08:23:37;103155.26;;;-5.94;75.38
77017;BME280;65949;53.132;17.930;2022-12-18T08:26:04;103159.17;;;-5.98;76.23
77017;BME280;65949;53.132;17.930;2022-12-18T08:28:31;103162.70;;;-5.91;75.78
77017;BME280;65949;53.132;17.930;2022-12-18T08:30:58;103161.71;;;-5.83;76.11
77017;BME280;65949;53.132;17.930;2022-12-18T08:33:25;103165.10;;;-5.77;75.55
77017;BME280;65949;53.132;17.930;2022-12-18T08:35:53;103178.01;;;-5.72;75.60
77017;BME280;65949;53.132;17.930;2022-12-18T08:38:19;103191.87;;;-5.69;75.69
77017;BME280;65949;53.132;17.930;2022-12-18T08:40:46;103194.73;;;-5.60;75.31
77017;BME280;65949;53.132;17.930;2022-12-18T08:43:13;103194.13;;;-5.52;75.41
77017;BME280;65949;53.132;17.930;2022-12-18T08:45:58;103194.52;;;-5.35;75.68
77017;BME280;65949;53.132;17.930;2022-12-18T08:48:25;103189.73;;;-5.20;74.89
77017;BME280;65949;53.132;17.930;2022-12-18T08:50:56;103189.35;;;-5.13;74.59
77017;BME280;65949;53.132;17.930;2022-12-18T08:53:23;103194.36;;;-5.12;73.97
77017;BME280;65949;53.132;17.930;2022-12-18T08:55:50;103190.86;;;-5.28;74.00
77017;BME280;65949;53.132;17.930;2022-12-18T08:58:17;103187.25;;;-5.41;74.07
77017;BME280;65949;53.132;17.930;2022-12-18T09:00:44;103184.36;;;-5.50;74.55
77017;BME280;65949;53.132;17.930;2022-12-18T09:03:16;103182.77;;;-5.46;74.60
77017;BME280;65949;53.132;17.930;2022-12-18T09:05:45;103179.89;;;-5.46;74.43
77017;BME280;65949;53.132;17.930;2022-12-18T09:08:12;103172.67;;;-5.50;74.66
77017;BME280;65949;53.132;17.930;2022-12-18T09:10:43;103171.86;;;-5.42;75.11
77017;BME280;65949;53.132;17.930;2022-12-18T09:13:12;103164.51;;;-5.32;75.01
77017;BME280;65949;53.132;17.930;2022-12-18T09:15:43;103157.13;;;-5.22;74.62
77017;BME280;65949;53.132;17.930;2022-12-18T09:18:13;103162.34;;;-5.16;74.83
77017;BME280;65949;53.132;17.930;2022-12-18T09:20:40;103167.25;;;-5.13;74.61
77017;BME280;65949;53.132;17.930;2022-12-18T09:23:08;103161.77;;;-5.17;74.40
77017;BME280;65949;53.132;17.930;2022-12-18T09:25:36;103154.31;;;-5.17;74.68
77017;BME280;65949;53.132;17.930;2022-12-18T09:28:05;103158.38;;;-5.20;74.51
77017;BME280;65949;53.132;17.930;2022-12-18T09:30:32;103156.43;;;-5.24;74.47
77017;BME280;65949;53.132;17.930;2022-12-18T09:33:02;103155.36;;;-5.21;74.86
77017;BME280;65949;53.132;17.930;2022-12-18T09:35:28;103156.34;;;-5.17;74.48
77017;BME280;65949;53.132;17.930;2022-12-18T09:37:55;103158.08;;;-5.20;74.70
77017;BME280;65949;53.132;17.930;2022-12-18T09:40:25;103161.60;;;-5.23;74.60
77017;BME280;65949;53.132;17.930;2022-12-18T09:42:58;103161.64;;;-5.27;74.85
77017;BME280;65949;53.132;17.930;2022-12-18T09:45:27;103168.27;;;-5.27;74.68
77017;BME280;65949;53.132;17.930;2022-12-18T09:47:57;103174.09;;;-5.28;74.87
77017;BME280;65949;53.132;17.930;2022-12-18T09:50:32;103175.57;;;-5.18;74.62
77017;BME280;65949;53.132;17.930;2022-12-18T09:53:06;103171.41;;;-5.08;74.41
77017;BME280;65949;53.132;17.930;2022-12-18T09:55:37;103175.15;;;-5.03;73.92
77017;BME280;65949;53.132;17.930;2022-12-18T09:58:15;103173.06;;;-4.99;73.96
77017;BME280;65949;53.132;17.930;2022-12-18T10:00:43;103163.45;;;-4.95;73.71
77017;BME280;65949;53.132;17.930;2022-12-18T10:03:13;103160.80;;;-4.93;73.73
77017;BME280;65949;53.132;17.930;2022-12-18T10:06:27;103155.17;;;-4.92;73.56
77017;BME280;65949;53.132;17.930;2022-12-18T10:09:16;103155.61;;;-4.94;73.80
77017;BME280;65949;53.132;17.930;2022-12-18T10:17:32;103164.80;;;-5.14;74.15
77017;BME280;65949;53.132;17.930;2022-12-18T10:28:29;103180.33;;;-4.88;73.77
77017;BME280;65949;53.132;17.930;2022-12-18T10:30:56;103189.54;;;-4.91;73.90
77017;BME280;65949;53.132;17.930;2022-12-18T10:33:28;103188.45;;;-4.96;73.81
77017;BME280;65949;53.132;17.930;2022-12-18T10:35:55;103182.48;;;-4.98;73.94
77017;BME280;65949;53.132;17.930;2022-12-18T10:38:30;103175.36;;;-4.95;74.14
77017;BME280;65949;53.132;17.930;2022-12-18T10:41:06;103177.08;;;-4.90;73.98
77017;BME280;65949;53.132;17.930;2022-12-18T10:43:39;103177.66;;;-4.80;73.61
77017;BME280;65949;53.132;17.930;2022-12-18T10:48:37;103176.20;;;-4.73;73.56
77017;BME280;65949;53.132;17.930;2022-12-18T10:51:07;103178.73;;;-4.70;73.31
77017;BME280;65949;53.132;17.930;2022-12-18T10:53:36;103182.79;;;-4.70;73.25
77017;BME280;65949;53.132;17.930;2022-12-18T10:56:06;103186.16;;;-4.64;73.54
77017;BME280;65949;53.132;17.930;2022-12-18T10:58:37;103193.55;;;-4.52;73.59
77017;BME280;65949;53.132;17.930;2022-12-18T11:01:13;103199.14;;;-4.49;73.12
77017;BME280;65949;53.132;17.930;2022-12-18T11:04:01;103205.34;;;-4.58;72.98
77017;BME280;65949;53.132;17.930;2022-12-18T11:06:32;103209.84;;;-4.65;73.21
77017;BME280;65949;53.132;17.930;2022-12-18T11:11:28;103205.01;;;-4.67;73.04
77017;BME280;65949;53.132;17.930;2022-12-18T11:14:02;103208.02;;;-4.63;73.37
77017;BME280;65949;53.132;17.930;2022-12-18T11:16:34;103207.92;;;-4.59;73.07
77017;BME280;65949;53.132;17.930;2022-12-18T11:19:23;103211.63;;;-4.61;73.11
77017;BME280;65949;53.132;17.930;2022-12-18T11:21:52;103208.59;;;-4.61;73.09
77017;BME280;65949;53.132;17.930;2022-12-18T11:26:51;103202.63;;;-4.69;73.14
77017;BME280;65949;53.132;17.930;2022-12-18T11:29:24;103197.94;;;-4.76;73.09
77017;BME280;65949;53.132;17.930;2022-12-18T11:32:29;103192.03;;;-4.71;73.21
77017;BME280;65949;53.132;17.930;2022-12-18T11:35:10;103186.36;;;-4.58;73.16
77017;BME280;65949;53.132;17.930;2022-12-18T11:37:41;103185.16;;;-4.56;72.79
77017;BME280;65949;53.132;17.930;2022-12-18T11:40:14;103184.67;;;-4.56;72.84
77017;BME280;65949;53.132;17.930;2022-12-18T11:42:52;103185.23;;;-4.51;72.87
77017;BME280;65949;53.132;17.930;2022-12-18T11:45:34;103188.40;;;-4.48;72.87
77017;BME280;65949;53.132;17.930;2022-12-18T11:48:12;103190.80;;;-4.51;72.54
77017;BME280;65949;53.132;17.930;2022-12-18T11:50:49;103189.77;;;-4.51;73.01
77017;BME280;65949;53.132;17.930;2022-12-18T11:53:18;103190.05;;;-4.53;72.65
77017;BME280;65949;53.132;17.930;2022-12-18T11:55:48;103196.60;;;-4.63;72.52
77017;BME280;65949;53.132;17.930;2022-12-18T12:15:34;103220.11;;;-4.98;72.64
77017;BME280;65949;53.132;17.930;2022-12-18T12:23:51;103229.81;;;-4.90;72.79
77017;BME280;65949;53.132;17.930;2022-12-18T12:26:52;103233.30;;;-4.83;72.88
77017;BME280;65949;53.132;17.930;2022-12-18T12:29:33;103238.66;;;-4.85;72.51
77017;BME280;65949;53.132;17.930;2022-12-18T12:32:19;103241.31;;;-4.89;72.80
77017;BME280;65949;53.132;17.930;2022-12-18T12:40:26;103258.46;;;-5.25;72.89
77017;BME280;65949;53.132;17.930;2022-12-18T12:43:03;103262.45;;;-5.32;73.53
77017;BME280;65949;53.132;17.930;2022-12-18T12:48:17;103271.84;;;-5.31;73.69
77017;BME280;65949;53.132;17.930;2022-12-18T12:50:47;103269.68;;;-5.29;73.44
77017;BME280;65949;53.132;17.930;2022-12-18T12:53:26;103270.52;;;-5.28;73.65
77017;BME280;65949;53.132;17.930;2022-12-18T12:55:55;103269.83;;;-5.28;73.66
77017;BME280;65949;53.132;17.930;2022-12-18T12:58:31;103273.41;;;-5.25;73.51
77017;BME280;65949;53.132;17.930;2022-12-18T13:03:56;103275.28;;;-5.17;73.40
77017;BME280;65949;53.132;17.930;2022-12-18T13:06:48;103281.08;;;-5.12;73.32
77017;BME280;65949;53.132;17.930;2022-12-18T13:09:16;103281.44;;;-5.09;73.40
77017;BME280;65949;53.132;17.930;2022-12-18T13:11:45;103274.50;;;-5.12;73.27
77017;BME280;65949;53.132;17.930;2022-12-18T13:14:37;103274.82;;;-5.18;73.21
77017;BME280;65949;53.132;17.930;2022-12-18T13:19:51;103270.30;;;-5.18;73.22
77017;BME280;65949;53.132;17.930;2022-12-18T13:22:28;103264.14;;;-5.18;73.39
77017;BME280;65949;53.132;17.930;2022-12-18T13:24:56;103264.98;;;-5.18;73.14
77017;BME280;65949;53.132;17.930;2022-12-18T13:35:51;103264.48;;;-5.27;73.37
77017;BME280;65949;53.132;17.930;2022-12-18T13:46:43;103259.66;;;-5.43;73.97
77017;BME280;65949;53.132;17.930;2022-12-18T13:51:48;103260.06;;;-5.50;73.79
77017;BME280;65949;53.132;17.930;2022-12-18T13:57:00;103260.98;;;-5.45;74.02
77017;BME280;65949;53.132;17.930;2022-12-18T13:59:38;103264.31;;;-5.47;74.06
77017;BME280;65949;53.132;17.930;2022-12-18T14:02:16;103263.44;;;-5.40;74.05
77017;BME280;65949;53.132;17.930;2022-12-18T14:04:48;103262.45;;;-5.32;74.08
77017;BME280;65949;53.132;17.930;2022-12-18T14:07:18;103262.62;;;-5.29;73.92
77017;BME280;65949;53.132;17.930;2022-12-18T14:09:50;103264.70;;;-5.30;74.00
77017;BME280;65949;53.132;17.930;2022-12-18T14:12:25;103270.88;;;-5.32;74.04
77017;BME280;65949;53.132;17.930;2022-12-18T14:15:49;103269.29;;;-5.33;74.02
77017;BME280;65949;53.132;17.930;2022-12-18T14:20:44;103270.97;;;-5.36;74.09
77017;BME280;65949;53.132;17.930;2022-12-18T14:23:40;103275.58;;;-5.39;74.13
77017;BME280;65949;53.132;17.930;2022-12-18T14:26:30;103281.66;;;-5.45;74.28
77017;BME280;65949;53.132;17.930;2022-12-18T14:28:59;103281.54;;;-5.52;74.22
77017;BME280;65949;53.132;17.930;2022-12-18T14:31:29;103279.39;;;-5.56;74.31
77017;BME280;65949;53.132;17.930;2022-12-18T14:33:57;103281.38;;;-5.58;74.34
77017;BME280;65949;53.132;17.930;2022-12-18T14:36:27;103285.38;;;-5.60;74.34
77017;BME280;65949;53.132;17.930;2022-12-18T14:38:56;103282.58;;;-5.59;74.33
77017;BME280;65949;53.132;17.930;2022-12-18T14:41:24;103281.54;;;-5.58;74.30